createdAt,value
2018-07-25T00:04:02.322Z,24.80
2018-07-25T00:08:56.865Z,24.70
2018-07-25T00:13:50.253Z,24.70
2018-07-25T00:18:40.372Z,24.60
2018-07-25T00:23:36.037Z,24.50
2018-07-25T00:28:29.599Z,24.40
2018-07-25T00:33:22.895Z,24.30
2018-07-25T00:38:27.506Z,24.30
2018-07-25T00:43:37.277Z,24.20
2018-07-25T00:48:26.394Z,24.10
2018-07-25T00:53:21.158Z,24.10
2018-07-25T00:58:16.365Z,24.00
2018-07-25T01:03:16.366Z,23.90
2018-07-25T01:08:13.258Z,23.80
2018-07-25T01:13:18.578Z,23.70
2018-07-25T01:18:08.944Z,23.70
2018-07-25T01:23:11.957Z,23.60
2018-07-25T01:28:03.341Z,23.60
2018-07-25T01:33:01.853Z,23.60
2018-07-25T01:37:56.654Z,23.50
2018-07-25T01:43:12.803Z,23.40
2018-07-25T01:48:15.953Z,23.40
2018-07-25T01:53:38.886Z,23.30
2018-07-25T01:58:28.645Z,23.30
2018-07-25T02:03:48.317Z,23.20
2018-07-25T02:08:43.472Z,23.10
2018-07-25T02:13:37.149Z,23.00
2018-07-25T02:18:30.573Z,22.90
2018-07-25T02:23:46.400Z,22.80
2018-07-25T02:29:09.830Z,22.80
2018-07-25T02:34:00.852Z,22.70
2018-07-25T02:38:57.536Z,22.60
2018-07-25T02:43:52.683Z,22.50
2018-07-25T02:48:48.291Z,22.40
2018-07-25T02:53:49.767Z,22.20
2018-07-25T02:59:00.845Z,22.20
2018-07-25T03:04:01.406Z,22.10
2018-07-25T03:09:02.183Z,22.00
2018-07-25T03:14:16.288Z,21.90
2018-07-25T03:19:09.278Z,21.80
2018-07-25T03:30:10.430Z,21.80
2018-07-25T03:31:08.138Z,21.70
2018-07-25T03:36:28.900Z,21.80
2018-07-25T03:41:47.111Z,21.70
2018-07-25T03:47:10.079Z,21.70
2018-07-25T03:58:38.881Z,21.70
2018-07-25T04:03:34.527Z,21.80
2018-07-25T04:09:02.491Z,21.80
2018-07-25T04:25:37.441Z,21.90
2018-07-25T04:30:37.850Z,22.00
2018-07-25T04:35:46.621Z,22.00
2018-07-25T04:40:42.101Z,22.10
2018-07-25T04:45:44.348Z,22.10
2018-07-25T04:50:55.340Z,22.10
2018-07-25T04:56:03.049Z,22.20
2018-07-25T05:01:24.857Z,22.30
2018-07-25T05:06:25.506Z,22.40
2018-07-25T05:11:35.328Z,22.50
2018-07-25T05:16:36.566Z,22.50
2018-07-25T05:21:38.234Z,22.70
2018-07-25T05:26:46.063Z,22.80
2018-07-25T05:31:50.983Z,23.00
2018-07-25T05:37:03.780Z,23.20
2018-07-25T05:42:12.334Z,23.40
2018-07-25T05:47:13.746Z,23.50
2018-07-25T05:57:34.348Z,23.70
2018-07-25T06:02:44.946Z,23.80
2018-07-25T06:07:45.657Z,24.00
2018-07-25T06:13:04.409Z,24.10
2018-07-25T06:17:59.175Z,24.10
2018-07-25T06:22:55.322Z,24.30
2018-07-25T06:27:48.461Z,24.50
2018-07-25T06:32:57.390Z,24.70
2018-07-25T06:38:01.581Z,24.90
2018-07-25T06:43:03.513Z,25.00
2018-07-25T06:48:02.246Z,25.30
2018-07-25T06:58:31.235Z,25.90
2018-07-25T07:03:26.820Z,26.10
2018-07-25T07:08:25.808Z,26.30
2018-07-25T07:13:24.612Z,26.60
2018-07-25T07:18:20.631Z,27.00
2018-07-25T07:23:13.494Z,27.20
2018-07-25T07:28:15.422Z,27.40
2018-07-25T07:33:08.233Z,27.90
2018-07-25T07:38:37.306Z,28.10
2018-07-25T07:43:39.412Z,28.40
2018-07-25T07:48:27.952Z,28.80
2018-07-25T07:53:29.256Z,29.20
2018-07-25T07:58:27.336Z,29.40
2018-07-25T08:03:46.498Z,29.60
2018-07-25T08:08:41.943Z,29.90
2018-07-25T08:13:33.684Z,30.20
2018-07-25T08:18:26.302Z,30.40
2018-07-25T08:23:19.928Z,30.40
2018-07-25T08:28:14.277Z,30.70
2018-07-25T08:33:44.215Z,31.10
2018-07-25T08:38:58.062Z,31.40
2018-07-25T08:44:09.234Z,31.70
2018-07-25T08:49:05.183Z,31.90
2018-07-25T08:54:27.502Z,32.30
2018-07-25T09:04:56.464Z,32.40
2018-07-25T09:09:57.161Z,32.70
2018-07-25T09:14:57.430Z,32.80
2018-07-25T09:20:00.862Z,32.90
2018-07-25T09:24:54.509Z,33.80
2018-07-25T09:29:49.253Z,34.10
2018-07-25T09:34:44.663Z,34.50
2018-07-25T09:39:51.320Z,34.70
2018-07-25T09:45:44.093Z,35.00
2018-07-25T09:50:43.891Z,35.10
2018-07-25T09:55:50.043Z,35.50
2018-07-25T10:00:49.148Z,35.70
2018-07-25T10:05:59.841Z,35.70
2018-07-25T10:10:58.068Z,35.50
2018-07-25T10:16:12.605Z,35.30
2018-07-25T10:21:06.797Z,35.10
2018-07-25T10:26:03.347Z,34.70
2018-07-25T10:31:11.875Z,34.30
2018-07-25T10:36:17.213Z,34.20
2018-07-25T10:41:16.177Z,34.30
2018-07-25T10:46:11.959Z,34.30
2018-07-25T10:51:06.920Z,34.70
2018-07-25T11:01:08.124Z,35.40
2018-07-25T11:06:04.453Z,35.90
2018-07-25T11:11:00.721Z,36.80
2018-07-25T11:15:55.132Z,37.70
2018-07-25T11:20:51.487Z,37.60
2018-07-25T11:25:49.054Z,38.20
2018-07-25T11:30:51.370Z,38.90
2018-07-25T11:35:54.565Z,38.90
2018-07-25T11:40:56.001Z,38.70
2018-07-25T11:46:27.562Z,39.10
2018-07-25T11:51:24.369Z,39.00
2018-07-25T11:56:28.865Z,38.90
2018-07-25T12:28:02.766Z,40.80
2018-07-25T12:35:13.177Z,40.30
2018-07-25T12:40:19.285Z,38.90
2018-07-25T12:51:53.826Z,37.70
2018-07-25T12:56:56.681Z,35.90
2018-07-25T13:02:08.296Z,35.40
2018-07-25T13:07:06.583Z,35.00
2018-07-25T13:12:06.750Z,34.80
2018-07-25T13:17:10.328Z,34.80
2018-07-25T13:22:06.334Z,34.70
2018-07-25T13:27:08.377Z,35.70
2018-07-25T13:37:54.970Z,37.40
2018-07-25T13:57:20.859Z,36.90
2018-07-25T14:02:28.473Z,38.50
2018-07-25T14:07:36.795Z,39.00
2018-07-25T14:13:48.974Z,39.20
2018-07-25T14:24:53.759Z,38.80
2018-07-25T14:45:42.935Z,38.80
2018-07-25T16:33:52.261Z,27.70
2018-07-25T16:38:45.386Z,27.80
2018-07-25T16:43:36.545Z,27.80
2018-07-25T16:48:29.712Z,27.60
2018-07-25T16:53:21.822Z,27.60
2018-07-25T16:58:14.365Z,27.70
2018-07-25T17:03:07.938Z,27.60
2018-07-25T17:08:02.692Z,27.60
2018-07-25T17:12:57.075Z,27.50
2018-07-25T17:17:50.741Z,27.60
2018-07-25T17:22:44.453Z,27.60
2018-07-25T17:27:37.998Z,27.60
2018-07-25T17:32:34.700Z,27.60
2018-07-25T17:37:28.792Z,27.70
2018-07-25T17:42:22.717Z,27.80
2018-07-25T17:47:17.352Z,27.90
2018-07-25T17:52:10.859Z,28.30
2018-07-25T17:57:04.581Z,28.60
2018-07-25T18:01:58.476Z,28.80
2018-07-25T18:06:52.145Z,28.90
2018-07-25T18:11:46.672Z,29.10
2018-07-25T18:16:40.581Z,29.10
2018-07-25T18:21:34.168Z,29.10
2018-07-25T18:26:27.733Z,29.20
2018-07-25T18:31:21.209Z,29.10
2018-07-25T18:36:15.705Z,29.00
2018-07-25T18:41:16.223Z,28.90
2018-07-25T18:46:08.684Z,28.80
2018-07-25T18:51:02.363Z,28.80
2018-07-25T18:55:56.085Z,28.70
2018-07-25T19:00:49.393Z,28.70
2018-07-25T19:05:42.801Z,28.50
2018-07-25T19:10:36.260Z,28.50
2018-07-25T19:15:29.577Z,28.40
2018-07-25T19:20:23.361Z,28.40
2018-07-25T19:25:16.598Z,28.20
2018-07-25T19:30:10.153Z,28.00
2018-07-25T19:35:03.535Z,27.90
2018-07-25T19:39:57.107Z,27.70
2018-07-25T19:44:50.394Z,27.60
2018-07-25T19:49:43.885Z,27.40
2018-07-25T19:54:37.435Z,27.30
2018-07-25T19:59:34.721Z,27.20
2018-07-25T20:04:27.052Z,27.10
2018-07-25T20:09:20.232Z,27.00
2018-07-25T20:14:13.729Z,26.90
2018-07-25T20:19:07.232Z,26.80
2018-07-25T20:24:01.116Z,26.70
2018-07-25T20:28:54.640Z,26.60
2018-07-25T20:33:48.060Z,26.50
2018-07-25T20:38:41.366Z,26.50
2018-07-25T20:43:34.869Z,26.50
2018-07-25T20:48:28.468Z,26.40
2018-07-25T20:53:22.072Z,26.40
2018-07-25T20:58:15.465Z,26.30
2018-07-25T21:03:08.729Z,26.30
2018-07-25T21:08:04.204Z,26.20
2018-07-25T21:12:58.523Z,26.20
2018-07-25T21:17:51.753Z,26.20
2018-07-25T21:22:44.921Z,26.20
2018-07-25T21:27:38.544Z,26.10
2018-07-25T21:32:31.959Z,26.10
2018-07-25T21:37:25.413Z,26.00
2018-07-25T21:42:20.927Z,26.00
2018-07-25T21:47:13.692Z,26.00
2018-07-25T21:52:07.065Z,26.00
2018-07-25T21:57:00.642Z,25.90
2018-07-25T22:01:54.964Z,25.90
2018-07-25T22:06:48.405Z,25.90
2018-07-25T22:11:41.752Z,25.90
2018-07-25T22:16:35.007Z,25.90
2018-07-25T22:21:29.401Z,25.80
2018-07-25T22:26:22.721Z,25.80
2018-07-25T22:31:16.306Z,25.80
2018-07-25T22:36:09.558Z,25.70
2018-07-25T22:41:04.392Z,25.70
2018-07-25T22:45:57.603Z,25.60
2018-07-25T22:50:55.013Z,25.60
2018-07-25T22:55:47.275Z,25.50
2018-07-25T23:00:40.587Z,25.40
2018-07-25T23:05:34.117Z,25.40
2018-07-25T23:10:28.636Z,25.30
2018-07-25T23:15:21.824Z,25.20
2018-07-25T23:20:15.404Z,25.20
2018-07-25T23:25:08.965Z,25.10
2018-07-25T23:30:02.385Z,25.10
2018-07-25T23:34:55.728Z,25.00
2018-07-25T23:39:49.988Z,24.90
2018-07-25T23:44:43.100Z,24.90
2018-07-25T23:49:36.585Z,24.80
2018-07-25T23:54:32.028Z,24.70
2018-07-25T23:59:25.008Z,24.70
